Terminal Aerodrome Forecast
Issued by NWS

Home | Current Version | Previous Version | Text Only | Print | Product List | Glossary On
Versions: 1 2 3 4 5 6 7 8 9 10 11 12 13 14 15 16 17 18 19 20 21 22
000
FTUS41 KGYX 211523 AAA
TAFPSM
TAF AMD
KPSM 211523Z 2115/2212 08007KT P6SM OVC015
     FM211800 08008KT 4SM -RA BR OVC010
     FM220500 03007G17KT 2SM -RA BR OVC007=

USA.gov is the U.S. government's official web portal to all federal, state and local government web resources and services.